Etusivu
METAR-TAF:

METAR-TAF

Lentoasemat :

Biserta, Tunisia

Leveyspiiri: 37-15N, Pituuspiiri: 009-48E, korkeus merenpinnasta: 5 m

Tämänhetkinen sää

Tämä raportti tehtiin 43 minuuttia sitten, kello 21.00 UTC
Tuuli 7 kn lännestä, vaihdellen lounaan ja lännen/luoteen välillä
Lämpötila 22°C
Kosteus 83%
Ilmanpaine 1016 hPa
Näkyvyys 10 km tai enemmän
Muutamia pilviä 2000 ft:n korkeudessa

METAR: DTTB 222100Z 27007KT 230V300 9999 FEW020 22/19 Q1016

Aika: 22:43 (21:43 UTC)

Sääennuste

Tämä raportti tehtiin 43 minuuttia sitten, kello 21.00 UTC
Ennuste voimassa 22. päivästä klo 22 UTC - 23. päivään klo 07 UTC
Tuuli 5 kn lännestä
Näkyvyys 10 km tai enemmän
Muutamia pilviä 2000 ft:n korkeudessa
Tulossa
23. päivästä klo 04 UTC - 23. päivään klo 06 UTC
Tuuli 15 kn lännestä/luoteesta

TAF: DTTB 222100Z 2222/2307 27005KT 9999 FEW020 BECMG 2304/2306 30015KT

Säähavainnot ja -ennusteet yli 4000 lentoasemalta (METAR- ja TAF-raportit).

Käytössä olevat sääasemat on merkitty karttaan keltaisilla ja punaisilla pisteillä.

Aseta hiiri pisteen päälle nähdäksesi sääaseman nimen.

Klikkaa sitten nähdäksesi säähavainnot ja -ennusteet.

Kartan vaihtaminen: klikkaa mustalla rastilla varustettuja vihreitä pisteitä, niin voit zoomata sisään; viivalla varustettua vihreää pistettä, niin voit zoomata ulos tai vihreitä nuolia, niin pääset viereisille kartoille.


METAR-TAF: